Time;durP1;ratioP1;P1;durP2;ratioP2;P2;SDS_P1;SDS_P2;PMS_P1;PMS_P2;Temp;Humidity;BMP_temperature;BMP_pressure;BME280_temperature;BME280_humidity;BME280_pressure;Samples;Min_cycle;Max_cycle;Signal;HPM_P1;HPM_P2
2022/06/25 00:01:03;;;;;;;14.75;3.92;;;21.60;99.90;;;;;;5065853;28;20240;-77
2022/06/25 00:03:31;;;;;;;11.40;4.07;;;21.60;99.90;;;;;;5070208;28;20036;-76
2022/06/25 00:05:58;;;;;;;13.25;4.43;;;21.70;99.90;;;;;;5079385;28;20058;-76
2022/06/25 00:08:24;;;;;;;11.55;4.47;;;21.70;99.90;;;;;;5082288;28;20067;-75
2022/06/25 00:10:52;;;;;;;10.82;5.07;;;21.60;99.90;;;;;;5087641;28;20040;-75
2022/06/25 00:13:20;;;;;;;9.55;4.43;;;21.70;99.90;;;;;;5085951;28;20071;-75
2022/06/25 00:15:46;;;;;;;13.15;5.18;;;21.70;99.90;;;;;;5086531;28;20092;-76
2022/06/25 00:18:13;;;;;;;9.82;4.10;;;21.70;99.90;;;;;;5066743;28;20041;-77
2022/06/25 00:20:39;;;;;;;15.82;5.55;;;21.70;99.90;;;;;;5062391;28;20029;-75
2022/06/25 00:23:06;;;;;;;11.57;5.05;;;21.70;99.90;;;;;;5045095;28;20056;-78
2022/06/25 00:25:34;;;;;;;11.75;4.88;;;21.70;99.90;;;;;;5056144;28;20032;-77
2022/06/25 00:28:00;;;;;;;13.10;4.70;;;21.70;99.90;;;;;;5088759;28;20471;-77
2022/06/25 00:30:30;;;;;;;11.98;5.13;;;21.70;99.90;;;;;;5076047;28;20045;-76
2022/06/25 00:32:57;;;;;;;10.32;4.25;;;21.60;99.90;;;;;;5090283;28;20396;-76
2022/06/25 00:35:24;;;;;;;11.25;4.93;;;21.60;99.90;;;;;;5076495;28;20047;-76
2022/06/25 00:37:51;;;;;;;10.50;4.50;;;21.60;99.90;;;;;;5041117;28;20061;-76
2022/06/25 00:40:18;;;;;;;9.15;4.40;;;21.50;99.90;;;;;;5049818;28;20051;-77
2022/06/25 00:42:45;;;;;;;9.55;4.50;;;21.50;99.90;;;;;;5044714;28;20087;-75
2022/06/25 00:45:12;;;;;;;9.80;4.50;;;21.50;99.90;;;;;;5056158;28;20222;-76
2022/06/25 00:47:39;;;;;;;11.40;4.22;;;21.50;99.90;;;;;;5048877;28;20043;-76
2022/06/25 00:50:08;;;;;;;10.80;4.30;;;21.50;99.90;;;;;;5079922;28;20041;-76
2022/06/25 00:52:39;;;;;;;10.52;4.18;;;21.50;99.90;;;;;;5052190;28;20405;-76
2022/06/25 00:55:14;;;;;;;12.57;4.40;;;21.50;99.90;;;;;;5074844;28;20120;-75
2022/06/25 00:57:43;;;;;;;10.77;4.18;;;21.50;99.90;;;;;;5055356;28;20059;-74
2022/06/25 01:00:12;;;;;;;11.52;4.28;;;21.40;99.90;;;;;;5070299;28;20658;-76
2022/06/25 01:02:40;;;;;;;10.00;4.22;;;21.40;99.90;;;;;;5060907;28;20072;-76
2022/06/25 01:05:09;;;;;;;9.45;4.22;;;21.40;99.90;;;;;;5053866;28;20033;-77
2022/06/25 01:07:36;;;;;;;8.52;3.95;;;21.30;99.90;;;;;;5044023;28;20048;-76
2022/06/25 01:10:06;;;;;;;10.98;4.32;;;21.40;99.90;;;;;;5057076;28;20025;-76
2022/06/25 01:12:33;;;;;;;10.48;3.55;;;21.40;99.90;;;;;;5056878;28;20033;-77
2022/06/25 01:15:04;;;;;;;9.95;3.60;;;21.50;99.90;;;;;;5058192;28;20041;-76
2022/06/25 01:17:31;;;;;;;10.45;4.10;;;21.40;99.90;;;;;;5076954;28;20040;-75
2022/06/25 01:20:06;;;;;;;8.48;3.40;;;21.50;99.90;;;;;;5063961;28;20036;-76
2022/06/25 01:22:32;;;;;;;11.27;3.28;;;21.50;99.90;;;;;;5060190;28;20615;-76
2022/06/25 01:25:00;;;;;;;11.68;3.10;;;21.50;99.90;;;;;;5055833;28;20045;-77
2022/06/25 01:27:28;;;;;;;9.90;3.22;;;21.50;99.90;;;;;;5066693;28;20034;-77
2022/06/25 01:29:57;;;;;;;6.93;2.97;;;21.60;99.90;;;;;;5060169;28;20044;-75
2022/06/25 01:32:23;;;;;;;11.65;3.15;;;21.60;99.90;;;;;;5083233;28;20471;-76
2022/06/25 01:34:50;;;;;;;8.55;2.95;;;21.60;99.90;;;;;;5085908;28;20036;-76
2022/06/25 01:37:18;;;;;;;8.52;2.78;;;21.60;99.90;;;;;;5061667;28;20048;-76
2022/06/25 01:39:44;;;;;;;7.75;2.70;;;21.60;99.90;;;;;;5096113;28;20040;-74
2022/06/25 01:42:58;;;;;;;8.73;2.53;;;21.60;99.90;;;;;;5031176;28;20041;-75
2022/06/25 01:44:59;;;;;;;9.35;2.67;;;21.60;99.90;;;;;;5059212;28;20048;-77
2022/06/25 01:47:27;;;;;;;11.80;2.92;;;21.60;99.90;;;;;;5074626;28;20047;-76
2022/06/25 01:49:53;;;;;;;9.52;2.97;;;21.60;99.90;;;;;;5034223;28;20032;-76
2022/06/25 01:52:21;;;;;;;7.40;2.55;;;21.70;99.90;;;;;;5091318;28;20568;-75
2022/06/25 01:54:47;;;;;;;7.55;2.85;;;21.60;99.90;;;;;;5064050;28;20036;-76
2022/06/25 01:57:14;;;;;;;8.82;2.88;;;21.60;99.90;;;;;;5092236;28;20042;-76
2022/06/25 01:59:40;;;;;;;11.93;2.80;;;21.70;99.90;;;;;;5065965;28;20037;-75
2022/06/25 02:02:08;;;;;;;8.40;2.30;;;21.60;99.90;;;;;;5061202;28;20090;-75
2022/06/25 02:04:34;;;;;;;7.32;2.72;;;21.60;99.90;;;;;;5064099;28;20025;-77
2022/06/25 02:07:02;;;;;;;9.07;3.08;;;21.70;99.90;;;;;;5076259;28;20040;-76
2022/06/25 02:09:29;;;;;;;7.28;2.72;;;21.70;99.90;;;;;;5064420;28;20107;-76
2022/06/25 02:11:55;;;;;;;9.57;3.00;;;21.80;99.90;;;;;;5077394;28;20028;-76
2022/06/25 02:14:21;;;;;;;9.68;2.65;;;21.90;99.90;;;;;;5058287;28;20036;-76
2022/06/25 02:16:48;;;;;;;8.95;2.90;;;21.90;99.90;;;;;;5064018;28;20524;-76
2022/06/25 02:19:14;;;;;;;10.80;2.83;;;22.00;99.90;;;;;;5065297;28;20033;-77
2022/06/25 02:21:40;;;;;;;9.00;2.30;;;22.00;99.90;;;;;;5059384;28;20475;-78
2022/06/25 02:24:06;;;;;;;7.60;2.70;;;22.00;99.90;;;;;;5079628;28;20040;-77
2022/06/25 02:26:32;;;;;;;10.18;3.10;;;22.00;99.90;;;;;;5068965;28;20047;-75
2022/06/25 02:28:59;;;;;;;11.90;2.80;;;22.00;99.90;;;;;;5074762;28;20043;-74
2022/06/25 02:31:25;;;;;;;11.82;2.83;;;21.90;99.90;;;;;;5060465;28;20361;-77
2022/06/25 02:33:51;;;;;;;8.13;2.38;;;21.90;99.90;;;;;;5068041;28;20135;-75
2022/06/25 02:36:19;;;;;;;12.82;2.83;;;21.90;99.90;;;;;;5060287;28;20040;-76
2022/06/25 02:38:45;;;;;;;7.43;2.35;;;21.90;99.90;;;;;;5078653;28;20043;-75
2022/06/25 02:41:13;;;;;;;7.30;2.53;;;21.80;99.90;;;;;;5062792;28;20044;-76
2022/06/25 02:43:40;;;;;;;10.02;2.58;;;21.80;99.90;;;;;;5064741;28;20426;-75
2022/06/25 02:46:07;;;;;;;10.95;3.03;;;21.80;99.90;;;;;;5079266;28;20048;-75
2022/06/25 02:48:33;;;;;;;12.60;3.53;;;21.80;99.90;;;;;;5079543;28;20037;-76
2022/06/25 02:50:59;;;;;;;9.32;2.95;;;21.80;99.90;;;;;;5078844;28;20037;-75
2022/06/25 02:53:25;;;;;;;9.18;2.72;;;21.80;99.90;;;;;;5077779;28;20046;-75
2022/06/25 02:58:54;;;;;;;7.22;2.67;;;21.90;99.90;;;;;;5064986;28;20058;-77
2022/06/25 03:01:22;;;;;;;7.93;3.03;;;21.90;99.90;;;;;;5040880;28;20396;-77
2022/06/25 03:03:48;;;;;;;12.90;3.38;;;21.90;99.90;;;;;;5062538;28;20044;-77
2022/06/25 03:06:15;;;;;;;11.60;3.30;;;21.90;99.90;;;;;;5047607;28;20040;-78
2022/06/25 03:08:41;;;;;;;9.30;3.03;;;21.90;99.90;;;;;;5075442;28;20045;-76
2022/06/25 03:11:07;;;;;;;9.35;2.80;;;21.90;99.90;;;;;;5042690;28;20453;-79
2022/06/25 03:13:36;;;;;;;11.10;3.13;;;21.90;99.90;;;;;;5041269;28;20045;-77
2022/06/25 03:16:08;;;;;;;10.30;3.30;;;21.90;99.90;;;;;;5077010;28;20045;-78
2022/06/25 03:18:35;;;;;;;8.18;2.58;;;21.90;99.90;;;;;;5079383;28;20144;-78
2022/06/25 03:21:03;;;;;;;7.07;2.88;;;21.90;99.90;;;;;;5040177;28;20057;-77
2022/06/25 03:23:29;;;;;;;7.75;2.85;;;21.80;99.90;;;;;;5032759;28;20033;-79
2022/06/25 03:25:55;;;;;;;7.85;2.95;;;21.80;99.90;;;;;;5057377;28;20040;-77
2022/06/25 03:28:21;;;;;;;8.40;3.03;;;21.70;99.90;;;;;;5041795;28;20048;-77
2022/06/25 03:30:47;;;;;;;10.27;2.97;;;21.60;99.90;;;;;;5047757;28;20462;-81
2022/06/25 03:33:14;;;;;;;9.68;3.00;;;21.50;99.90;;;;;;5051225;28;20041;-77
2022/06/25 03:35:40;;;;;;;10.45;3.00;;;21.40;99.90;;;;;;5075870;28;20360;-77
2022/06/25 03:38:08;;;;;;;7.13;3.22;;;21.30;99.90;;;;;;5041534;28;20049;-79
2022/06/25 03:40:34;;;;;;;9.85;3.00;;;21.20;99.90;;;;;;5047002;28;20075;-77
2022/06/25 03:43:00;;;;;;;8.38;2.88;;;21.20;99.90;;;;;;5063103;28;20049;-78
2022/06/25 03:45:26;;;;;;;15.35;3.05;;;21.10;99.90;;;;;;5040810;28;20116;-77
2022/06/25 03:47:53;;;;;;;11.25;3.20;;;21.10;99.90;;;;;;5059780;28;20850;-77
2022/06/25 03:50:22;;;;;;;7.90;2.90;;;21.10;99.90;;;;;;5046964;28;20043;-79
2022/06/25 03:52:50;;;;;;;9.30;3.03;;;21.10;99.90;;;;;;5042776;28;20045;-77
2022/06/25 03:55:16;;;;;;;9.38;2.95;;;21.00;99.90;;;;;;5059179;28;20079;-79
2022/06/25 03:57:43;;;;;;;8.25;2.67;;;21.00;99.90;;;;;;5047178;28;20117;-78
2022/06/25 04:00:09;;;;;;;8.70;3.28;;;21.00;99.90;;;;;;5082424;28;20058;-75
2022/06/25 04:02:36;;;;;;;9.57;3.38;;;20.90;99.90;;;;;;5078485;28;20068;-81
2022/06/25 04:05:03;;;;;;;9.02;3.13;;;20.90;99.90;;;;;;5050832;28;20039;-78
2022/06/25 04:07:29;;;;;;;9.15;3.30;;;20.80;99.90;;;;;;5041833;28;20045;-79
2022/06/25 04:09:56;;;;;;;9.50;3.50;;;20.80;99.90;;;;;;5046146;28;20109;-76
2022/06/25 04:12:22;;;;;;;9.65;3.35;;;20.80;99.90;;;;;;5038824;28;20082;-77
2022/06/25 04:14:48;;;;;;;10.10;3.35;;;20.80;99.90;;;;;;5041161;28;20120;-79
2022/06/25 04:17:14;;;;;;;6.70;2.80;;;20.70;99.90;;;;;;5071170;28;20038;-76
2022/06/25 04:19:40;;;;;;;8.68;3.40;;;20.70;99.90;;;;;;5058864;28;20444;-76
2022/06/25 04:22:11;;;;;;;10.38;3.40;;;20.70;99.90;;;;;;5084258;28;20040;-78
2022/06/25 04:24:39;;;;;;;14.48;3.00;;;20.70;99.90;;;;;;5077814;28;20052;-77
2022/06/25 04:27:07;;;;;;;12.00;4.88;;;20.60;99.90;;;;;;5083299;28;20042;-80
2022/06/25 04:29:33;;;;;;;8.23;3.50;;;20.60;99.90;;;;;;5075129;28;20475;-77
2022/06/25 04:31:59;;;;;;;11.25;3.20;;;20.60;99.90;;;;;;5055530;28;20043;-79
2022/06/25 04:34:26;;;;;;;9.25;3.50;;;20.60;99.90;;;;;;5052027;28;20037;-77
2022/06/25 04:36:52;;;;;;;11.60;3.25;;;20.60;99.90;;;;;;5045087;28;20512;-80
2022/06/25 04:39:20;;;;;;;6.32;3.03;;;20.60;99.90;;;;;;5046270;28;20406;-78
2022/06/25 04:41:47;;;;;;;8.55;3.28;;;20.50;99.90;;;;;;5045999;28;20067;-80
2022/06/25 04:44:15;;;;;;;8.93;3.10;;;20.50;99.90;;;;;;5080219;28;20099;-78
2022/06/25 04:46:41;;;;;;;11.25;4.47;;;20.50;99.90;;;;;;5080208;28;20393;-80
2022/06/25 04:49:09;;;;;;;11.35;3.60;;;20.50;99.90;;;;;;5062574;28;20097;-76
2022/06/25 04:51:35;;;;;;;9.32;3.55;;;20.60;99.90;;;;;;5080018;28;20033;-77
2022/06/25 04:54:03;;;;;;;7.82;3.20;;;20.60;99.90;;;;;;5095885;28;20041;-78
2022/06/25 04:56:30;;;;;;;7.35;3.30;;;20.60;99.90;;;;;;5072163;28;20044;-78
2022/06/25 04:58:58;;;;;;;6.90;3.22;;;20.70;99.90;;;;;;5078307;28;20041;-77
2022/06/25 05:01:25;;;;;;;10.13;3.20;;;20.70;99.90;;;;;;5057613;28;20044;-78
2022/06/25 05:03:50;;;;;;;7.65;3.20;;;20.70;99.90;;;;;;5068187;28;20100;-77
2022/06/25 05:06:16;;;;;;;9.77;3.10;;;20.80;99.90;;;;;;5066668;28;20116;-81
2022/06/25 05:08:43;;;;;;;7.88;3.47;;;20.80;99.90;;;;;;5070028;28;21110;-80
2022/06/25 05:11:09;;;;;;;9.68;3.10;;;20.80;99.90;;;;;;5063038;28;20067;-76
2022/06/25 05:13:37;;;;;;;13.10;2.92;;;20.90;99.90;;;;;;5083783;28;20068;-77
2022/06/25 05:16:03;;;;;;;13.52;3.47;;;21.00;99.90;;;;;;5080009;28;20047;-76
2022/06/25 05:18:29;;;;;;;9.77;3.20;;;21.00;99.90;;;;;;5083795;28;20052;-78
2022/06/25 05:20:55;;;;;;;11.32;3.10;;;21.10;99.90;;;;;;5063104;28;20033;-79
2022/06/25 05:23:21;;;;;;;10.27;2.90;;;21.20;99.90;;;;;;5069450;28;20040;-77
2022/06/25 05:25:49;;;;;;;6.85;2.88;;;21.20;99.90;;;;;;5084134;28;20086;-78
2022/06/25 05:28:18;;;;;;;8.32;2.80;;;21.20;99.90;;;;;;5081299;28;20021;-77
2022/06/25 05:30:44;;;;;;;6.15;2.58;;;21.30;99.90;;;;;;5068626;28;20044;-77
2022/06/25 05:33:11;;;;;;;5.82;2.90;;;21.30;99.90;;;;;;5083889;28;20396;-79
2022/06/25 05:35:36;;;;;;;8.45;3.47;;;21.40;99.90;;;;;;5081400;28;20047;-78
2022/06/25 05:38:02;;;;;;;8.60;3.08;;;21.50;99.90;;;;;;5069488;28;20036;-76
2022/06/25 05:40:29;;;;;;;7.72;3.20;;;21.50;99.90;;;;;;5066135;28;20036;-78
2022/06/25 05:42:55;;;;;;;7.15;2.75;;;21.60;99.90;;;;;;5068241;28;20494;-77
2022/06/25 05:45:22;;;;;;;8.15;3.22;;;21.60;99.90;;;;;;5068584;28;20043;-76
2022/06/25 05:47:48;;;;;;;7.72;2.80;;;21.70;99.90;;;;;;5069140;28;20445;-78
2022/06/25 05:50:14;;;;;;;9.18;3.33;;;21.80;99.90;;;;;;5069417;28;20119;-79
2022/06/25 05:52:40;;;;;;;6.25;2.97;;;21.80;99.90;;;;;;5085233;28;20065;-76
2022/06/25 05:55:07;;;;;;;9.15;3.35;;;21.90;99.90;;;;;;5085663;28;20064;-81
2022/06/25 05:57:33;;;;;;;8.57;2.97;;;22.00;99.90;;;;;;5082321;28;20045;-77
2022/06/25 06:00:01;;;;;;;7.13;2.95;;;22.00;99.90;;;;;;5071222;28;20034;-78
2022/06/25 06:02:28;;;;;;;7.57;2.65;;;22.10;99.90;;;;;;5068959;28;20036;-78
2022/06/25 06:04:54;;;;;;;7.13;3.00;;;22.20;99.90;;;;;;5088017;28;20033;-80
2022/06/25 06:07:20;;;;;;;8.05;2.42;;;22.30;99.90;;;;;;5063080;28;20047;-79
2022/06/25 06:09:46;;;;;;;6.40;3.05;;;22.30;99.90;;;;;;5065288;28;20048;-76
2022/06/25 06:12:12;;;;;;;4.90;2.50;;;22.40;99.90;;;;;;5069441;28;20400;-79
2022/06/25 06:14:38;;;;;;;7.25;3.00;;;22.50;99.90;;;;;;5063260;28;20032;-79
2022/06/25 06:17:05;;;;;;;9.40;2.83;;;22.50;99.90;;;;;;5082204;28;20051;-78
2022/06/25 06:19:31;;;;;;;6.82;2.60;;;22.60;99.90;;;;;;5070529;28;20128;-78
2022/06/25 06:21:57;;;;;;;12.88;2.92;;;22.70;99.90;;;;;;5084846;28;20045;-78
2022/06/25 06:24:23;;;;;;;8.38;2.97;;;22.70;99.90;;;;;;5065949;28;20029;-76
2022/06/25 06:26:50;;;;;;;6.75;2.53;;;22.80;99.90;;;;;;5065671;28;20036;-77
2022/06/25 06:29:17;;;;;;;4.90;2.13;;;22.90;99.90;;;;;;5079835;28;20097;-78
2022/06/25 06:31:43;;;;;;;5.60;2.55;;;22.90;99.90;;;;;;5059983;28;20096;-77
2022/06/25 06:34:09;;;;;;;6.18;2.53;;;23.00;99.90;;;;;;5075812;28;20044;-77
2022/06/25 06:36:35;;;;;;;9.25;2.60;;;23.10;99.90;;;;;;5063627;28;20082;-77
2022/06/25 06:39:01;;;;;;;6.53;2.00;;;23.20;99.90;;;;;;5082061;28;20131;-77
2022/06/25 06:41:28;;;;;;;5.70;2.28;;;23.20;99.90;;;;;;5070769;28;20052;-78
2022/06/25 06:43:54;;;;;;;8.35;2.50;;;23.30;99.90;;;;;;5083377;28;20135;-78
2022/06/25 06:46:20;;;;;;;9.35;2.92;;;23.40;99.90;;;;;;5067280;28;20075;-77
2022/06/25 06:48:46;;;;;;;6.47;2.65;;;23.40;99.90;;;;;;5082409;28;20059;-81
2022/06/25 06:51:12;;;;;;;6.25;2.33;;;23.40;99.90;;;;;;5064670;28;20036;-76
2022/06/25 06:53:37;;;;;;;6.82;2.45;;;23.40;99.90;;;;;;5064101;28;20024;-76
2022/06/25 06:56:04;;;;;;;4.82;2.20;;;23.50;99.90;;;;;;5064708;28;20555;-77
2022/06/25 06:58:30;;;;;;;6.80;2.28;;;23.50;99.90;;;;;;5083952;28;20040;-77
2022/06/25 07:00:57;;;;;;;9.73;2.60;;;23.60;99.90;;;;;;5082726;28;20048;-78
2022/06/25 07:03:25;;;;;;;6.57;2.40;;;23.60;99.90;;;;;;5083865;28;20050;-77
2022/06/25 07:05:51;;;;;;;6.55;2.22;;;23.70;99.90;;;;;;5062440;28;20033;-78
2022/06/25 07:08:17;;;;;;;6.53;2.33;;;23.60;99.90;;;;;;5081800;28;20131;-77
2022/06/25 07:10:43;;;;;;;7.20;1.95;;;23.70;99.90;;;;;;5069491;28;20064;-78
2022/06/25 07:13:10;;;;;;;6.90;2.30;;;23.80;99.90;;;;;;5085784;28;20036;-78
2022/06/25 07:15:37;;;;;;;5.85;2.10;;;23.80;99.90;;;;;;5068911;28;20035;-78
2022/06/25 07:18:04;;;;;;;7.97;2.20;;;23.90;99.90;;;;;;5068678;28;20036;-77
2022/06/25 07:20:30;;;;;;;10.60;2.75;;;24.00;99.90;;;;;;5084086;28;21593;-79
2022/06/25 07:22:56;;;;;;;7.40;2.38;;;24.10;99.90;;;;;;5066945;28;20067;-77
2022/06/25 07:25:21;;;;;;;6.72;2.65;;;24.10;99.90;;;;;;5077193;28;20041;-78
2022/06/25 07:27:48;;;;;;;5.80;2.40;;;24.10;99.90;;;;;;5087273;28;20306;-78
2022/06/25 07:30:16;;;;;;;7.95;2.85;;;24.20;99.90;;;;;;5068573;28;20182;-78
2022/06/25 07:32:42;;;;;;;6.75;2.35;;;24.10;99.90;;;;;;5081743;28;20503;-80
2022/06/25 07:35:08;;;;;;;8.05;2.50;;;24.10;99.90;;;;;;5066542;28;20151;-78
2022/06/25 07:37:35;;;;;;;6.80;2.45;;;24.20;99.90;;;;;;5057957;28;20036;-76
2022/06/25 07:40:01;;;;;;;7.57;2.50;;;24.30;99.90;;;;;;5075239;28;20037;-76
2022/06/25 07:42:30;;;;;;;9.23;2.38;;;24.40;99.90;;;;;;5072734;28;20053;-76
2022/06/25 07:44:58;;;;;;;11.48;2.60;;;24.40;99.90;;;;;;5076928;28;20040;-76
2022/06/25 07:47:24;;;;;;;7.53;2.65;;;24.50;99.90;;;;;;5055480;28;20069;-77
2022/06/25 07:52:35;;;;;;;6.53;2.55;;;24.70;99.90;;;;;;5062029;28;20063;-75
2022/06/25 07:55:03;;;;;;;8.40;2.75;;;24.80;99.90;;;;;;5063863;28;20134;-76
2022/06/25 07:57:32;;;;;;;8.82;2.30;;;24.90;99.90;;;;;;5077309;28;20047;-75
2022/06/25 07:59:58;;;;;;;10.18;2.60;;;25.10;99.90;;;;;;5049706;28;20032;-74
2022/06/25 08:02:24;;;;;;;8.85;2.72;;;25.20;99.90;;;;;;5049348;28;20038;-75
2022/06/25 08:04:50;;;;;;;10.77;2.80;;;25.30;99.90;;;;;;5055866;28;20049;-75
2022/06/25 08:07:16;;;;;;;6.55;2.70;;;25.40;99.90;;;;;;5063305;28;20051;-75
2022/06/25 08:09:42;;;;;;;10.43;3.28;;;25.60;99.90;;;;;;5047340;28;20037;-77
2022/06/25 08:12:08;;;;;;;11.25;2.63;;;25.40;99.90;;;;;;5044002;28;20119;-79
2022/06/25 08:14:35;;;;;;;8.88;2.95;;;25.40;99.90;;;;;;5081110;28;20098;-77
2022/06/25 08:17:01;;;;;;;8.60;2.90;;;25.40;99.90;;;;;;5061061;28;20657;-79
2022/06/25 08:19:27;;;;;;;9.73;2.85;;;25.50;99.90;;;;;;5085802;28;20036;-77
2022/06/25 08:21:53;;;;;;;8.43;2.63;;;25.60;99.90;;;;;;5070840;28;20128;-74
2022/06/25 08:24:19;;;;;;;8.52;2.30;;;25.90;99.90;;;;;;5070003;28;20059;-74
2022/06/25 08:26:46;;;;;;;5.25;2.00;;;26.20;99.90;;;;;;5066152;28;20131;-80
2022/06/25 08:29:12;;;;;;;8.13;2.58;;;26.50;99.90;;;;;;5060254;28;20040;-74
2022/06/25 08:31:39;;;;;;;9.48;2.63;;;26.10;99.90;;;;;;5049621;28;20041;-76
2022/06/25 08:34:06;;;;;;;12.20;2.33;;;25.90;99.90;;;;;;5078515;28;20044;-76
2022/06/25 08:36:32;;;;;;;8.68;2.55;;;26.00;99.90;;;;;;5083093;28;20088;-74
2022/06/25 08:38:58;;;;;;;9.43;2.30;;;26.20;99.90;;;;;;5027169;28;20048;-78
2022/06/25 08:41:26;;;;;;;9.27;2.40;;;26.50;99.90;;;;;;5063823;28;20392;-75
2022/06/25 08:43:53;;;;;;;7.55;2.58;;;28.00;99.90;;;;;;5078455;28;20037;-80
2022/06/25 08:46:20;;;;;;;6.72;2.25;;;28.60;99.90;;;;;;5100822;28;20044;-75
2022/06/25 08:48:50;;;;;;;8.45;2.38;;;29.50;99.90;;;;;;5050812;28;20048;-79
2022/06/25 08:51:18;;;;;;;10.82;2.10;;;29.00;99.90;;;;;;5059006;28;20068;-76
2022/06/25 08:53:46;;;;;;;8.70;2.30;;;28.00;99.90;;;;;;5049117;28;21165;-78
2022/06/25 08:56:14;;;;;;;5.68;2.25;;;28.60;99.90;;;;;;5056146;28;20055;-74
2022/06/25 08:58:44;;;;;;;7.38;2.42;;;28.40;99.90;;;;;;5050380;28;20065;-75
2022/06/25 09:01:11;;;;;;;9.18;2.08;;;28.80;99.90;;;;;;5082120;28;20083;-74
2022/06/25 09:03:39;;;;;;;5.32;2.00;;;29.80;99.90;;;;;;5070809;28;20102;-75
2022/06/25 09:06:13;;;;;;;6.78;1.90;;;29.20;99.90;;;;;;5067939;28;20056;-78
2022/06/25 09:08:39;;;;;;;7.57;2.40;;;30.00;99.90;;;;;;5070821;28;20136;-78
2022/06/25 09:11:05;;;;;;;6.13;2.22;;;31.30;99.90;;;;;;5070176;28;20054;-74
2022/06/25 09:13:31;;;;;;;5.68;2.20;;;31.50;99.90;;;;;;5083749;28;20036;-74
2022/06/25 09:15:57;;;;;;;7.00;1.83;;;31.60;99.90;;;;;;5074862;28;20106;-78
2022/06/25 09:18:24;;;;;;;7.80;2.45;;;31.70;99.90;;;;;;5071959;28;20056;-76
2022/06/25 09:20:59;;;;;;;8.10;2.20;;;31.20;99.90;;;;;;5065822;28;20036;-75
2022/06/25 09:23:34;;;;;;;7.32;1.90;;;30.90;99.90;;;;;;5062442;28;20048;-78
2022/06/25 09:26:09;;;;;;;5.97;2.13;;;31.00;99.90;;;;;;5068296;28;20043;-78
2022/06/25 09:28:37;;;;;;;7.57;2.00;;;31.10;99.90;;;;;;5066984;28;20040;-76
2022/06/25 09:31:04;;;;;;;6.45;1.60;;;31.40;99.90;;;;;;5067685;28;20045;-76
2022/06/25 09:33:31;;;;;;;5.82;1.38;;;32.10;99.40;;;;;;5079797;28;20045;-77
2022/06/25 09:35:58;;;;;;;3.83;1.60;;;32.70;97.30;;;;;;5066795;28;20090;-76
2022/06/25 09:38:25;;;;;;;10.80;1.90;;;33.40;96.90;;;;;;5067751;28;20170;-76
2022/06/25 09:40:57;;;;;;;6.60;2.30;;;33.60;96.30;;;;;;5082978;28;20044;-75
2022/06/25 09:43:39;;;;;;;4.72;1.77;;;33.30;97.20;;;;;;5070261;28;20050;-77
2022/06/25 09:46:07;;;;;;;6.55;1.92;;;32.60;97.50;;;;;;5078903;28;20036;-78
2022/06/25 09:48:35;;;;;;;7.38;2.45;;;33.00;97.00;;;;;;5082964;28;20399;-74
2022/06/25 09:51:26;;;;;;;4.35;1.75;;;32.70;97.90;;;;;;5082336;28;20029;-76
2022/06/25 09:53:54;;;;;;;5.57;1.77;;;32.60;97.50;;;;;;5067331;28;20389;-75
2022/06/25 09:56:26;;;;;;;5.53;1.48;;;33.00;95.70;;;;;;5081727;28;20036;-76
2022/06/25 09:58:55;;;;;;;2.92;1.25;;;32.40;95.30;;;;;;5062254;28;20041;-75
2022/06/25 10:01:30;;;;;;;2.95;1.30;;;32.80;93.40;;;;;;5060992;28;20566;-78
2022/06/25 10:03:58;;;;;;;4.72;1.65;;;33.00;94.70;;;;;;5068010;28;20106;-78
2022/06/25 10:06:25;;;;;;;8.93;1.73;;;33.60;94.50;;;;;;5078815;28;20059;-76
2022/06/25 10:08:54;;;;;;;4.43;1.63;;;32.80;93.90;;;;;;5083345;28;20041;-75
2022/06/25 10:11:23;;;;;;;3.25;1.13;;;32.70;93.70;;;;;;5082939;28;20143;-76
2022/06/25 10:13:51;;;;;;;7.50;1.55;;;32.60;92.50;;;;;;5065775;28;20798;-76
2022/06/25 10:16:20;;;;;;;5.00;1.48;;;32.50;93.60;;;;;;5066518;28;20041;-81
2022/06/25 10:18:48;;;;;;;6.07;1.75;;;32.30;93.60;;;;;;5082423;28;20132;-80
2022/06/25 10:21:14;;;;;;;3.17;1.30;;;33.30;93.70;;;;;;5081436;28;20044;-75
2022/06/25 10:23:41;;;;;;;5.45;1.30;;;33.00;92.90;;;;;;5065300;28;20080;-80
2022/06/25 10:26:09;;;;;;;4.63;1.42;;;33.60;92.40;;;;;;5065615;28;20044;-75
2022/06/25 10:28:36;;;;;;;7.57;1.50;;;33.10;92.30;;;;;;5066528;28;20036;-75
2022/06/25 10:31:06;;;;;;;4.82;1.20;;;33.80;92.60;;;;;;5064551;28;20170;-74
2022/06/25 10:34:09;;;;;;;4.00;1.67;;;33.10;91.90;;;;;;5078689;28;20078;-79
2022/06/25 10:36:43;;;;;;;4.90;1.58;;;32.80;92.80;;;;;;5059582;28;20062;-76
2022/06/25 10:39:24;;;;;;;6.43;1.90;;;32.50;92.40;;;;;;5064552;28;20090;-75
2022/06/25 10:45:07;;;;;;;4.47;1.83;;;33.00;94.00;;;;;;5065700;28;20082;-76
2022/06/25 10:47:38;;;;;;;4.55;1.48;;;34.10;92.80;;;;;;5078891;28;20025;-75
2022/06/25 10:50:25;;;;;;;;;;;32.50;91.00;;;;;;5057695;28;20119;-75
2022/06/25 10:55:59;;;;;;;4.80;1.20;;;32.00;90.00;;;;;;5066953;28;20044;-75
2022/06/25 10:58:40;;;;;;;4.72;1.45;;;31.70;90.90;;;;;;5062051;28;20403;-76
2022/06/25 11:01:17;;;;;;;7.15;2.17;;;31.90;90.90;;;;;;5081252;28;20124;-77
2022/06/25 11:03:43;;;;;;;5.00;1.30;;;32.40;92.00;;;;;;5064843;28;20040;-80
2022/06/25 11:06:34;;;;;;;5.05;1.35;;;32.20;91.50;;;;;;5078207;28;20033;-77
2022/06/25 11:09:08;;;;;;;;;;;30.80;92.00;;;;;;5077478;28;20032;-76
2022/06/25 11:11:34;;;;;;;3.85;1.63;;;30.80;94.30;;;;;;5058551;28;19916;-75
2022/06/25 11:14:03;;;;;;;5.22;1.80;;;31.10;94.50;;;;;;5065590;28;20045;-79
2022/06/25 11:16:29;;;;;;;5.88;2.17;;;31.60;94.60;;;;;;5079654;28;20033;-76
2022/06/25 11:19:00;;;;;;;7.60;2.30;;;31.70;94.10;;;;;;5066928;28;20414;-79
2022/06/25 11:21:36;;;;;;;8.45;2.47;;;31.80;95.20;;;;;;5061460;28;20036;-78
2022/06/25 11:24:20;;;;;;;9.45;2.50;;;31.40;97.00;;;;;;5062072;28;20043;-79
2022/06/25 11:29:46;;;;;;;4.63;1.80;;;31.10;95.10;;;;;;5044292;28;20579;-74
2022/06/25 11:32:20;;;;;;;5.95;1.90;;;30.40;94.90;;;;;;5051997;28;20037;-75
2022/06/25 11:34:58;;;;;;;6.28;2.30;;;30.80;97.40;;;;;;5070669;28;20040;-75
2022/06/25 11:37:25;;;;;;;7.30;2.45;;;30.30;96.60;;;;;;5052341;28;20075;-75
2022/06/25 11:39:52;;;;;;;11.00;2.60;;;30.80;97.50;;;;;;5053565;28;20040;-75
2022/06/25 11:42:20;;;;;;;5.15;1.92;;;30.10;97.20;;;;;;5061640;28;20186;-77
2022/06/25 11:44:48;;;;;;;4.70;1.55;;;30.00;97.30;;;;;;5079044;28;20044;-74
2022/06/25 11:47:20;;;;;;;7.40;1.95;;;30.50;95.10;;;;;;5077242;28;20400;-74
2022/06/25 11:49:46;;;;;;;7.70;2.28;;;30.20;97.20;;;;;;5082422;28;20033;-76
2022/06/25 11:52:16;;;;;;;7.45;1.90;;;29.80;98.70;;;;;;5061558;28;20146;-78
2022/06/25 11:54:44;;;;;;;5.07;1.70;;;30.50;97.40;;;;;;5065142;28;20033;-76
2022/06/25 11:57:23;;;;;;;10.00;2.50;;;30.80;97.30;;;;;;5081230;28;20063;-81
2022/06/25 11:59:51;;;;;;;7.63;2.05;;;30.60;97.70;;;;;;5062416;28;20388;-75
2022/06/25 12:02:18;;;;;;;199.75;42.55;;;30.20;96.30;;;;;;5077820;28;20050;-83
2022/06/25 12:04:51;;;;;;;6.90;2.25;;;30.30;95.60;;;;;;5069711;28;20051;-78
2022/06/25 12:07:23;;;;;;;6.88;1.80;;;30.70;95.30;;;;;;5065070;28;20055;-79
2022/06/25 12:09:51;;;;;;;7.10;1.80;;;31.00;94.60;;;;;;5065638;28;20034;-80
2022/06/25 12:12:21;;;;;;;6.60;2.28;;;30.80;95.60;;;;;;5067266;28;20132;-83
2022/06/25 12:14:48;;;;;;;7.32;2.22;;;30.00;97.80;;;;;;5071073;28;20062;-83
2022/06/25 12:17:15;;;;;;;7.65;2.00;;;30.90;97.10;;;;;;5078529;28;20033;-77
2022/06/25 12:19:52;;;;;;;8.65;2.10;;;31.10;95.80;;;;;;5045323;28;20037;-80
2022/06/25 12:22:30;;;;;;;7.68;2.30;;;31.50;96.40;;;;;;5071906;28;20033;-81
2022/06/25 12:25:02;;;;;;;8.57;2.40;;;31.90;96.80;;;;;;5085012;28;20060;-78
2022/06/25 12:27:29;;;;;;;7.70;1.75;;;32.70;95.60;;;;;;5064142;28;20380;-82
2022/06/25 12:29:59;;;;;;;6.18;2.17;;;33.20;93.90;;;;;;5046372;28;20471;-77
2022/06/25 12:32:40;;;;;;;4.63;1.80;;;32.10;93.80;;;;;;5067459;28;20059;-79
2022/06/25 12:35:26;;;;;;;8.03;2.17;;;31.70;94.50;;;;;;5083280;28;20040;-78
2022/06/25 12:38:07;;;;;;;8.75;2.90;;;31.70;95.50;;;;;;5081576;28;20043;-78
2022/06/25 12:40:50;;;;;;;7.05;2.05;;;32.10;96.20;;;;;;5070754;28;20032;-81
2022/06/25 12:43:17;;;;;;;4.97;1.75;;;32.00;95.40;;;;;;5048061;28;20029;-80
2022/06/25 12:45:47;;;;;;;4.22;1.77;;;30.70;95.40;;;;;;5062231;28;20111;-78
2022/06/25 12:48:30;;;;;;;6.20;2.20;;;30.90;95.70;;;;;;5065651;28;20040;-80
2022/06/25 12:51:07;;;;;;;5.25;1.98;;;31.80;96.10;;;;;;5081952;28;20127;-81
2022/06/25 12:53:34;;;;;;;8.95;2.17;;;31.70;95.20;;;;;;5082919;28;20092;-83
2022/06/25 12:56:03;;;;;;;4.20;1.30;;;32.20;95.60;;;;;;5067128;28;20051;-77
2022/06/25 12:58:36;;;;;;;5.82;1.60;;;32.10;93.40;;;;;;5045106;28;20037;-77
2022/06/25 13:01:19;;;;;;;4.53;1.70;;;32.60;93.60;;;;;;5070532;28;20048;-77
2022/06/25 13:03:46;;;;;;;6.80;2.05;;;32.20;94.50;;;;;;5052206;28;20072;-76
2022/06/25 13:06:12;;;;;;;6.63;1.92;;;32.40;94.60;;;;;;5094308;28;20078;-81